sensor_id;sensor_type;location;lat;lon;timestamp;pressure;altitude;pressure_sealevel;temperature
68446;BMP280;35789;48.414;12.768;2024-01-15T00:00:01;95690.0;;;
68446;BMP280;35789;48.414;12.768;2024-01-15T00:05:00;95700.0;;;
68446;BMP280;35789;48.414;12.768;2024-01-15T00:10:00;95690.0;;;
68446;BMP280;35789;48.414;12.768;2024-01-15T00:15:00;95690.0;;;
68446;BMP280;35789;48.414;12.768;2024-01-15T00:20:00;95700.0;;;
68446;BMP280;35789;48.414;12.768;2024-01-15T00:25:00;95690.0;;;
68446;BMP280;35789;48.414;12.768;2024-01-15T00:30:00;95690.0;;;
68446;BMP280;35789;48.414;12.768;2024-01-15T00:35:00;95690.0;;;
68446;BMP280;35789;48.414;12.768;2024-01-15T00:40:00;95680.0;;;
68446;BMP280;35789;48.414;12.768;2024-01-15T00:45:00;95680.0;;;
68446;BMP280;35789;48.414;12.768;2024-01-15T00:50:00;95680.0;;;
68446;BMP280;35789;48.414;12.768;2024-01-15T00:55:00;95670.0;;;
68446;BMP280;35789;48.414;12.768;2024-01-15T01:00:00;95680.0;;;
68446;BMP280;35789;48.414;12.768;2024-01-15T01:05:00;95670.0;;;
68446;BMP280;35789;48.414;12.768;2024-01-15T01:10:00;95680.0;;;
68446;BMP280;35789;48.414;12.768;2024-01-15T01:15:01;95660.0;;;
68446;BMP280;35789;48.414;12.768;2024-01-15T01:20:00;95670.0;;;
68446;BMP280;35789;48.414;12.768;2024-01-15T01:25:00;95680.0;;;
68446;BMP280;35789;48.414;12.768;2024-01-15T01:30:00;95680.0;;;
68446;BMP280;35789;48.414;12.768;2024-01-15T01:35:00;95690.0;;;
68446;BMP280;35789;48.414;12.768;2024-01-15T01:40:00;95690.0;;;
68446;BMP280;35789;48.414;12.768;2024-01-15T01:45:00;95700.0;;;
68446;BMP280;35789;48.414;12.768;2024-01-15T01:50:01;95710.0;;;
68446;BMP280;35789;48.414;12.768;2024-01-15T01:55:02;95710.0;;;
68446;BMP280;35789;48.414;12.768;2024-01-15T02:00:02;95720.0;;;
68446;BMP280;35789;48.414;12.768;2024-01-15T02:05:00;95710.0;;;
68446;BMP280;35789;48.414;12.768;2024-01-15T02:10:00;95710.0;;;
68446;BMP280;35789;48.414;12.768;2024-01-15T02:15:00;95710.0;;;
68446;BMP280;35789;48.414;12.768;2024-01-15T02:20:00;95720.0;;;
68446;BMP280;35789;48.414;12.768;2024-01-15T02:25:00;95720.0;;;
68446;BMP280;35789;48.414;12.768;2024-01-15T02:30:00;95710.0;;;
68446;BMP280;35789;48.414;12.768;2024-01-15T02:35:00;95710.0;;;
68446;BMP280;35789;48.414;12.768;2024-01-15T02:40:00;95710.0;;;
68446;BMP280;35789;48.414;12.768;2024-01-15T02:45:00;95720.0;;;
68446;BMP280;35789;48.414;12.768;2024-01-15T02:50:00;95730.0;;;
68446;BMP280;35789;48.414;12.768;2024-01-15T02:55:00;95730.0;;;
68446;BMP280;35789;48.414;12.768;2024-01-15T03:00:00;95740.0;;;
68446;BMP280;35789;48.414;12.768;2024-01-15T03:05:00;95730.0;;;
68446;BMP280;35789;48.414;12.768;2024-01-15T03:10:00;95730.0;;;
68446;BMP280;35789;48.414;12.768;2024-01-15T03:15:00;95740.0;;;
68446;BMP280;35789;48.414;12.768;2024-01-15T03:20:00;95730.0;;;
68446;BMP280;35789;48.414;12.768;2024-01-15T03:25:00;95720.0;;;
68446;BMP280;35789;48.414;12.768;2024-01-15T03:30:00;95730.0;;;
68446;BMP280;35789;48.414;12.768;2024-01-15T03:35:00;95730.0;;;
68446;BMP280;35789;48.414;12.768;2024-01-15T03:40:03;95730.0;;;
68446;BMP280;35789;48.414;12.768;2024-01-15T03:45:00;95720.0;;;
68446;BMP280;35789;48.414;12.768;2024-01-15T03:50:00;95730.0;;;
68446;BMP280;35789;48.414;12.768;2024-01-15T03:55:00;95740.0;;;
68446;BMP280;35789;48.414;12.768;2024-01-15T04:00:00;95740.0;;;
68446;BMP280;35789;48.414;12.768;2024-01-15T04:05:00;95740.0;;;
68446;BMP280;35789;48.414;12.768;2024-01-15T04:10:00;95740.0;;;
68446;BMP280;35789;48.414;12.768;2024-01-15T04:15:00;95730.0;;;
68446;BMP280;35789;48.414;12.768;2024-01-15T04:20:00;95730.0;;;
68446;BMP280;35789;48.414;12.768;2024-01-15T04:25:00;95730.0;;;
68446;BMP280;35789;48.414;12.768;2024-01-15T04:30:00;95730.0;;;
68446;BMP280;35789;48.414;12.768;2024-01-15T04:35:00;95730.0;;;
68446;BMP280;35789;48.414;12.768;2024-01-15T04:40:00;95730.0;;;
68446;BMP280;35789;48.414;12.768;2024-01-15T04:45:00;95730.0;;;
68446;BMP280;35789;48.414;12.768;2024-01-15T04:50:00;95730.0;;;
68446;BMP280;35789;48.414;12.768;2024-01-15T04:55:00;95730.0;;;
68446;BMP280;35789;48.414;12.768;2024-01-15T05:00:00;95730.0;;;
68446;BMP280;35789;48.414;12.768;2024-01-15T05:05:00;95730.0;;;
68446;BMP280;35789;48.414;12.768;2024-01-15T05:10:00;95720.0;;;
68446;BMP280;35789;48.414;12.768;2024-01-15T05:15:00;95720.0;;;
68446;BMP280;35789;48.414;12.768;2024-01-15T05:20:00;95720.0;;;
68446;BMP280;35789;48.414;12.768;2024-01-15T05:25:00;95720.0;;;
68446;BMP280;35789;48.414;12.768;2024-01-15T05:30:00;95710.0;;;
68446;BMP280;35789;48.414;12.768;2024-01-15T05:35:00;95710.0;;;
68446;BMP280;35789;48.414;12.768;2024-01-15T05:40:00;95700.0;;;
68446;BMP280;35789;48.414;12.768;2024-01-15T05:45:00;95700.0;;;
68446;BMP280;35789;48.414;12.768;2024-01-15T05:50:00;95700.0;;;
68446;BMP280;35789;48.414;12.768;2024-01-15T05:55:00;95690.0;;;
68446;BMP280;35789;48.414;12.768;2024-01-15T06:00:00;95710.0;;;
68446;BMP280;35789;48.414;12.768;2024-01-15T06:05:00;95700.0;;;
68446;BMP280;35789;48.414;12.768;2024-01-15T06:10:00;95710.0;;;
68446;BMP280;35789;48.414;12.768;2024-01-15T06:15:00;95720.0;;;
68446;BMP280;35789;48.414;12.768;2024-01-15T06:20:00;95710.0;;;
68446;BMP280;35789;48.414;12.768;2024-01-15T06:25:00;95700.0;;;
68446;BMP280;35789;48.414;12.768;2024-01-15T06:30:00;95690.0;;;
68446;BMP280;35789;48.414;12.768;2024-01-15T06:35:00;95690.0;;;
68446;BMP280;35789;48.414;12.768;2024-01-15T06:40:00;95690.0;;;
68446;BMP280;35789;48.414;12.768;2024-01-15T06:45:00;95700.0;;;
68446;BMP280;35789;48.414;12.768;2024-01-15T06:50:00;95710.0;;;
68446;BMP280;35789;48.414;12.768;2024-01-15T06:55:00;95700.0;;;
68446;BMP280;35789;48.414;12.768;2024-01-15T07:00:00;95700.0;;;
68446;BMP280;35789;48.414;12.768;2024-01-15T07:05:00;95710.0;;;
68446;BMP280;35789;48.414;12.768;2024-01-15T07:10:00;95720.0;;;
68446;BMP280;35789;48.414;12.768;2024-01-15T07:15:00;95720.0;;;
68446;BMP280;35789;48.414;12.768;2024-01-15T07:20:00;95710.0;;;
68446;BMP280;35789;48.414;12.768;2024-01-15T07:25:00;95710.0;;;
68446;BMP280;35789;48.414;12.768;2024-01-15T07:30:00;95720.0;;;
68446;BMP280;35789;48.414;12.768;2024-01-15T07:35:00;95710.0;;;
68446;BMP280;35789;48.414;12.768;2024-01-15T07:40:00;95690.0;;;
68446;BMP280;35789;48.414;12.768;2024-01-15T07:45:01;95690.0;;;
68446;BMP280;35789;48.414;12.768;2024-01-15T07:50:00;95690.0;;;
68446;BMP280;35789;48.414;12.768;2024-01-15T07:55:00;95700.0;;;
68446;BMP280;35789;48.414;12.768;2024-01-15T08:00:00;95700.0;;;
68446;BMP280;35789;48.414;12.768;2024-01-15T08:05:00;95700.0;;;
68446;BMP280;35789;48.414;12.768;2024-01-15T08:10:00;95690.0;;;
68446;BMP280;35789;48.414;12.768;2024-01-15T08:15:00;95660.0;;;
68446;BMP280;35789;48.414;12.768;2024-01-15T08:20:00;95660.0;;;
68446;BMP280;35789;48.414;12.768;2024-01-15T08:25:00;95670.0;;;
68446;BMP280;35789;48.414;12.768;2024-01-15T08:30:00;95690.0;;;
68446;BMP280;35789;48.414;12.768;2024-01-15T08:35:00;95670.0;;;
68446;BMP280;35789;48.414;12.768;2024-01-15T08:40:00;95680.0;;;
68446;BMP280;35789;48.414;12.768;2024-01-15T08:45:00;95670.0;;;
68446;BMP280;35789;48.414;12.768;2024-01-15T08:50:01;95680.0;;;
68446;BMP280;35789;48.414;12.768;2024-01-15T08:55:00;95690.0;;;
68446;BMP280;35789;48.414;12.768;2024-01-15T09:00:00;95690.0;;;
68446;BMP280;35789;48.414;12.768;2024-01-15T09:05:00;95680.0;;;
68446;BMP280;35789;48.414;12.768;2024-01-15T09:10:00;95680.0;;;
68446;BMP280;35789;48.414;12.768;2024-01-15T09:15:00;95690.0;;;
68446;BMP280;35789;48.414;12.768;2024-01-15T09:20:01;95690.0;;;
68446;BMP280;35789;48.414;12.768;2024-01-15T09:25:00;95680.0;;;
68446;BMP280;35789;48.414;12.768;2024-01-15T09:30:00;95680.0;;;
68446;BMP280;35789;48.414;12.768;2024-01-15T09:35:00;95680.0;;;
68446;BMP280;35789;48.414;12.768;2024-01-15T09:40:00;95680.0;;;
68446;BMP280;35789;48.414;12.768;2024-01-15T09:45:01;95680.0;;;
68446;BMP280;35789;48.414;12.768;2024-01-15T09:50:00;95680.0;;;
68446;BMP280;35789;48.414;12.768;2024-01-15T09:55:02;95680.0;;;
68446;BMP280;35789;48.414;12.768;2024-01-15T10:00:02;95680.0;;;
68446;BMP280;35789;48.414;12.768;2024-01-15T10:05:00;95690.0;;;
68446;BMP280;35789;48.414;12.768;2024-01-15T10:10:00;95690.0;;;
68446;BMP280;35789;48.414;12.768;2024-01-15T10:15:01;95670.0;;;
68446;BMP280;35789;48.414;12.768;2024-01-15T10:20:00;95660.0;;;
68446;BMP280;35789;48.414;12.768;2024-01-15T10:25:01;95650.0;;;
68446;BMP280;35789;48.414;12.768;2024-01-15T10:30:00;95630.0;;;
68446;BMP280;35789;48.414;12.768;2024-01-15T10:35:00;95640.0;;;
68446;BMP280;35789;48.414;12.768;2024-01-15T10:40:01;95630.0;;;
68446;BMP280;35789;48.414;12.768;2024-01-15T10:45:01;95630.0;;;
68446;BMP280;35789;48.414;12.768;2024-01-15T10:50:01;95620.0;;;
68446;BMP280;35789;48.414;12.768;2024-01-15T10:55:02;95620.0;;;
68446;BMP280;35789;48.414;12.768;2024-01-15T11:00:01;95610.0;;;
68446;BMP280;35789;48.414;12.768;2024-01-15T11:05:00;95610.0;;;
68446;BMP280;35789;48.414;12.768;2024-01-15T11:10:02;95600.0;;;
68446;BMP280;35789;48.414;12.768;2024-01-15T11:15:03;95590.0;;;
68446;BMP280;35789;48.414;12.768;2024-01-15T11:20:00;95560.0;;;
68446;BMP280;35789;48.414;12.768;2024-01-15T11:25:02;95570.0;;;
68446;BMP280;35789;48.414;12.768;2024-01-15T11:30:04;95590.0;;;
68446;BMP280;35789;48.414;12.768;2024-01-15T11:35:01;95580.0;;;
68446;BMP280;35789;48.414;12.768;2024-01-15T11:40:03;95580.0;;;
68446;BMP280;35789;48.414;12.768;2024-01-15T11:45:00;95580.0;;;
68446;BMP280;35789;48.414;12.768;2024-01-15T11:50:01;95580.0;;;
68446;BMP280;35789;48.414;12.768;2024-01-15T11:55:12;95570.0;;;
68446;BMP280;35789;48.414;12.768;2024-01-15T12:00:01;95580.0;;;
68446;BMP280;35789;48.414;12.768;2024-01-15T12:05:00;95560.0;;;
68446;BMP280;35789;48.414;12.768;2024-01-15T12:10:00;95560.0;;;
68446;BMP280;35789;48.414;12.768;2024-01-15T12:15:00;95550.0;;;
68446;BMP280;35789;48.414;12.768;2024-01-15T12:20:00;95560.0;;;
68446;BMP280;35789;48.414;12.768;2024-01-15T12:25:00;95550.0;;;
68446;BMP280;35789;48.414;12.768;2024-01-15T12:30:00;95550.0;;;
68446;BMP280;35789;48.414;12.768;2024-01-15T12:35:00;95550.0;;;
68446;BMP280;35789;48.414;12.768;2024-01-15T12:40:00;95540.0;;;
68446;BMP280;35789;48.414;12.768;2024-01-15T12:45:00;95540.0;;;
68446;BMP280;35789;48.414;12.768;2024-01-15T12:50:00;95530.0;;;
68446;BMP280;35789;48.414;12.768;2024-01-15T12:55:00;95530.0;;;
68446;BMP280;35789;48.414;12.768;2024-01-15T13:00:00;95530.0;;;
68446;BMP280;35789;48.414;12.768;2024-01-15T13:05:00;95520.0;;;
68446;BMP280;35789;48.414;12.768;2024-01-15T13:10:00;95520.0;;;
68446;BMP280;35789;48.414;12.768;2024-01-15T13:15:00;95530.0;;;
68446;BMP280;35789;48.414;12.768;2024-01-15T13:20:00;95520.0;;;
68446;BMP280;35789;48.414;12.768;2024-01-15T13:25:00;95510.0;;;
68446;BMP280;35789;48.414;12.768;2024-01-15T13:30:00;95510.0;;;
68446;BMP280;35789;48.414;12.768;2024-01-15T13:35:00;95510.0;;;
68446;BMP280;35789;48.414;12.768;2024-01-15T13:40:00;95510.0;;;
68446;BMP280;35789;48.414;12.768;2024-01-15T13:45:00;95510.0;;;
68446;BMP280;35789;48.414;12.768;2024-01-15T13:50:00;95510.0;;;
68446;BMP280;35789;48.414;12.768;2024-01-15T13:55:00;95520.0;;;
68446;BMP280;35789;48.414;12.768;2024-01-15T14:00:00;95520.0;;;
68446;BMP280;35789;48.414;12.768;2024-01-15T14:05:00;95520.0;;;
68446;BMP280;35789;48.414;12.768;2024-01-15T14:10:00;95530.0;;;
68446;BMP280;35789;48.414;12.768;2024-01-15T14:15:01;95540.0;;;
68446;BMP280;35789;48.414;12.768;2024-01-15T14:20:00;95540.0;;;
68446;BMP280;35789;48.414;12.768;2024-01-15T14:25:00;95540.0;;;
68446;BMP280;35789;48.414;12.768;2024-01-15T14:30:00;95540.0;;;
68446;BMP280;35789;48.414;12.768;2024-01-15T14:35:00;95550.0;;;
68446;BMP280;35789;48.414;12.768;2024-01-15T14:40:00;95540.0;;;
68446;BMP280;35789;48.414;12.768;2024-01-15T14:45:00;95530.0;;;
68446;BMP280;35789;48.414;12.768;2024-01-15T14:50:00;95540.0;;;
68446;BMP280;35789;48.414;12.768;2024-01-15T14:55:01;95540.0;;;
68446;BMP280;35789;48.414;12.768;2024-01-15T15:00:00;95540.0;;;
68446;BMP280;35789;48.414;12.768;2024-01-15T15:05:00;95540.0;;;
68446;BMP280;35789;48.414;12.768;2024-01-15T15:10:00;95550.0;;;
68446;BMP280;35789;48.414;12.768;2024-01-15T15:15:00;95560.0;;;
68446;BMP280;35789;48.414;12.768;2024-01-15T15:20:00;95570.0;;;
68446;BMP280;35789;48.414;12.768;2024-01-15T15:25:00;95590.0;;;
68446;BMP280;35789;48.414;12.768;2024-01-15T15:30:00;95590.0;;;
68446;BMP280;35789;48.414;12.768;2024-01-15T15:35:00;95590.0;;;
68446;BMP280;35789;48.414;12.768;2024-01-15T15:40:05;95590.0;;;
68446;BMP280;35789;48.414;12.768;2024-01-15T15:45:00;95600.0;;;
68446;BMP280;35789;48.414;12.768;2024-01-15T15:50:00;95600.0;;;
68446;BMP280;35789;48.414;12.768;2024-01-15T15:55:00;95600.0;;;
68446;BMP280;35789;48.414;12.768;2024-01-15T16:00:00;95600.0;;;
68446;BMP280;35789;48.414;12.768;2024-01-15T16:05:00;95600.0;;;
68446;BMP280;35789;48.414;12.768;2024-01-15T16:10:00;95610.0;;;
68446;BMP280;35789;48.414;12.768;2024-01-15T16:15:01;95610.0;;;
68446;BMP280;35789;48.414;12.768;2024-01-15T16:20:00;95620.0;;;
68446;BMP280;35789;48.414;12.768;2024-01-15T16:25:00;95630.0;;;
68446;BMP280;35789;48.414;12.768;2024-01-15T16:30:00;95630.0;;;
68446;BMP280;35789;48.414;12.768;2024-01-15T16:35:00;95650.0;;;
68446;BMP280;35789;48.414;12.768;2024-01-15T16:40:00;95640.0;;;
68446;BMP280;35789;48.414;12.768;2024-01-15T16:45:00;95650.0;;;
68446;BMP280;35789;48.414;12.768;2024-01-15T16:50:00;95660.0;;;
68446;BMP280;35789;48.414;12.768;2024-01-15T16:55:00;95670.0;;;
68446;BMP280;35789;48.414;12.768;2024-01-15T17:00:00;95670.0;;;
68446;BMP280;35789;48.414;12.768;2024-01-15T17:05:00;95670.0;;;
68446;BMP280;35789;48.414;12.768;2024-01-15T17:10:00;95680.0;;;
68446;BMP280;35789;48.414;12.768;2024-01-15T17:15:00;95680.0;;;
68446;BMP280;35789;48.414;12.768;2024-01-15T17:20:00;95680.0;;;
68446;BMP280;35789;48.414;12.768;2024-01-15T17:25:00;95690.0;;;
68446;BMP280;35789;48.414;12.768;2024-01-15T17:30:00;95710.0;;;
68446;BMP280;35789;48.414;12.768;2024-01-15T17:35:00;95720.0;;;
68446;BMP280;35789;48.414;12.768;2024-01-15T17:40:00;95710.0;;;
68446;BMP280;35789;48.414;12.768;2024-01-15T17:45:00;95720.0;;;
68446;BMP280;35789;48.414;12.768;2024-01-15T17:50:00;95730.0;;;
68446;BMP280;35789;48.414;12.768;2024-01-15T17:55:00;95730.0;;;
68446;BMP280;35789;48.414;12.768;2024-01-15T18:00:00;95740.0;;;
68446;BMP280;35789;48.414;12.768;2024-01-15T18:05:00;95740.0;;;
68446;BMP280;35789;48.414;12.768;2024-01-15T18:10:00;95730.0;;;
68446;BMP280;35789;48.414;12.768;2024-01-15T18:15:00;95750.0;;;
68446;BMP280;35789;48.414;12.768;2024-01-15T18:20:00;95760.0;;;
68446;BMP280;35789;48.414;12.768;2024-01-15T18:25:00;95760.0;;;
68446;BMP280;35789;48.414;12.768;2024-01-15T18:30:00;95770.0;;;
68446;BMP280;35789;48.414;12.768;2024-01-15T18:35:00;95780.0;;;
68446;BMP280;35789;48.414;12.768;2024-01-15T18:40:00;95800.0;;;
68446;BMP280;35789;48.414;12.768;2024-01-15T18:45:00;95790.0;;;
68446;BMP280;35789;48.414;12.768;2024-01-15T18:50:00;95800.0;;;
68446;BMP280;35789;48.414;12.768;2024-01-15T18:55:00;95800.0;;;
68446;BMP280;35789;48.414;12.768;2024-01-15T19:00:00;95800.0;;;
68446;BMP280;35789;48.414;12.768;2024-01-15T19:05:00;95810.0;;;
68446;BMP280;35789;48.414;12.768;2024-01-15T19:10:00;95820.0;;;
68446;BMP280;35789;48.414;12.768;2024-01-15T19:15:00;95830.0;;;
68446;BMP280;35789;48.414;12.768;2024-01-15T19:20:00;95850.0;;;
68446;BMP280;35789;48.414;12.768;2024-01-15T19:25:00;95860.0;;;
68446;BMP280;35789;48.414;12.768;2024-01-15T19:30:00;95860.0;;;
68446;BMP280;35789;48.414;12.768;2024-01-15T19:35:00;95870.0;;;
68446;BMP280;35789;48.414;12.768;2024-01-15T19:40:00;95880.0;;;
68446;BMP280;35789;48.414;12.768;2024-01-15T19:45:00;95890.0;;;
68446;BMP280;35789;48.414;12.768;2024-01-15T19:50:00;95910.0;;;
68446;BMP280;35789;48.414;12.768;2024-01-15T19:55:00;95920.0;;;
68446;BMP280;35789;48.414;12.768;2024-01-15T20:00:00;95920.0;;;
68446;BMP280;35789;48.414;12.768;2024-01-15T20:05:00;95920.0;;;
68446;BMP280;35789;48.414;12.768;2024-01-15T20:10:00;95920.0;;;
68446;BMP280;35789;48.414;12.768;2024-01-15T20:15:00;95940.0;;;
68446;BMP280;35789;48.414;12.768;2024-01-15T20:20:00;95950.0;;;
68446;BMP280;35789;48.414;12.768;2024-01-15T20:25:00;95960.0;;;
68446;BMP280;35789;48.414;12.768;2024-01-15T20:30:00;95970.0;;;
68446;BMP280;35789;48.414;12.768;2024-01-15T20:35:00;95970.0;;;
68446;BMP280;35789;48.414;12.768;2024-01-15T20:40:00;95990.0;;;
68446;BMP280;35789;48.414;12.768;2024-01-15T20:45:00;95990.0;;;
68446;BMP280;35789;48.414;12.768;2024-01-15T20:50:00;95990.0;;;
68446;BMP280;35789;48.414;12.768;2024-01-15T20:55:00;95980.0;;;
68446;BMP280;35789;48.414;12.768;2024-01-15T21:00:00;95990.0;;;
68446;BMP280;35789;48.414;12.768;2024-01-15T21:05:00;95990.0;;;
68446;BMP280;35789;48.414;12.768;2024-01-15T21:10:00;96010.0;;;
68446;BMP280;35789;48.414;12.768;2024-01-15T21:15:00;96010.0;;;
68446;BMP280;35789;48.414;12.768;2024-01-15T21:20:00;96010.0;;;
68446;BMP280;35789;48.414;12.768;2024-01-15T21:25:01;96010.0;;;
68446;BMP280;35789;48.414;12.768;2024-01-15T21:30:00;96020.0;;;
68446;BMP280;35789;48.414;12.768;2024-01-15T21:35:03;96040.0;;;
68446;BMP280;35789;48.414;12.768;2024-01-15T21:40:00;96050.0;;;
68446;BMP280;35789;48.414;12.768;2024-01-15T21:45:00;96060.0;;;
68446;BMP280;35789;48.414;12.768;2024-01-15T21:50:00;96070.0;;;
68446;BMP280;35789;48.414;12.768;2024-01-15T21:55:00;96070.0;;;
68446;BMP280;35789;48.414;12.768;2024-01-15T22:00:00;96070.0;;;
68446;BMP280;35789;48.414;12.768;2024-01-15T22:05:00;96090.0;;;
68446;BMP280;35789;48.414;12.768;2024-01-15T22:10:00;96090.0;;;
68446;BMP280;35789;48.414;12.768;2024-01-15T22:15:00;96100.0;;;
68446;BMP280;35789;48.414;12.768;2024-01-15T22:20:03;96100.0;;;
68446;BMP280;35789;48.414;12.768;2024-01-15T22:25:00;96100.0;;;
68446;BMP280;35789;48.414;12.768;2024-01-15T22:30:00;96110.0;;;
68446;BMP280;35789;48.414;12.768;2024-01-15T22:35:00;96110.0;;;
68446;BMP280;35789;48.414;12.768;2024-01-15T22:40:00;96120.0;;;
68446;BMP280;35789;48.414;12.768;2024-01-15T22:45:00;96120.0;;;
68446;BMP280;35789;48.414;12.768;2024-01-15T22:50:01;96120.0;;;
68446;BMP280;35789;48.414;12.768;2024-01-15T22:55:00;96140.0;;;
68446;BMP280;35789;48.414;12.768;2024-01-15T23:00:00;96150.0;;;
68446;BMP280;35789;48.414;12.768;2024-01-15T23:05:01;96150.0;;;
68446;BMP280;35789;48.414;12.768;2024-01-15T23:10:00;96150.0;;;
68446;BMP280;35789;48.414;12.768;2024-01-15T23:15:00;96150.0;;;
68446;BMP280;35789;48.414;12.768;2024-01-15T23:20:00;96160.0;;;
68446;BMP280;35789;48.414;12.768;2024-01-15T23:25:00;96160.0;;;
68446;BMP280;35789;48.414;12.768;2024-01-15T23:30:00;96150.0;;;
68446;BMP280;35789;48.414;12.768;2024-01-15T23:35:00;96160.0;;;
68446;BMP280;35789;48.414;12.768;2024-01-15T23:40:00;96170.0;;;
68446;BMP280;35789;48.414;12.768;2024-01-15T23:45:00;96170.0;;;
68446;BMP280;35789;48.414;12.768;2024-01-15T23:50:00;96170.0;;;
68446;BMP280;35789;48.414;12.768;2024-01-15T23:55:00;96170.0;;;
